sensor_id;sensor_type;location;lat;lon;timestamp;P1;durP1;ratioP1;P2;durP2;ratioP2
15261;SDS011;7733;51.554;13.590;2023-03-19T00:00:06;11.43;;;10.33;;
15261;SDS011;7733;51.554;13.590;2023-03-19T00:02:33;11.57;;;10.47;;
15261;SDS011;7733;51.554;13.590;2023-03-19T00:05:00;11.77;;;10.57;;
15261;SDS011;7733;51.554;13.590;2023-03-19T00:07:28;11.43;;;10.23;;
15261;SDS011;7733;51.554;13.590;2023-03-19T00:09:54;11.20;;;10.20;;
15261;SDS011;7733;51.554;13.590;2023-03-19T00:12:20;12.03;;;10.70;;
15261;SDS011;7733;51.554;13.590;2023-03-19T00:14:47;11.07;;;9.83;;
15261;SDS011;7733;51.554;13.590;2023-03-19T00:17:13;11.07;;;10.00;;
15261;SDS011;7733;51.554;13.590;2023-03-19T00:19:39;13.63;;;11.30;;
15261;SDS011;7733;51.554;13.590;2023-03-19T00:22:04;12.47;;;10.87;;
15261;SDS011;7733;51.554;13.590;2023-03-19T00:24:31;13.07;;;11.30;;
15261;SDS011;7733;51.554;13.590;2023-03-19T00:26:57;12.97;;;11.67;;
15261;SDS011;7733;51.554;13.590;2023-03-19T00:29:23;11.50;;;10.10;;
15261;SDS011;7733;51.554;13.590;2023-03-19T00:31:48;11.57;;;10.47;;
15261;SDS011;7733;51.554;13.590;2023-03-19T00:34:15;12.17;;;10.10;;
15261;SDS011;7733;51.554;13.590;2023-03-19T00:36:43;11.33;;;9.90;;
15261;SDS011;7733;51.554;13.590;2023-03-19T00:39:09;11.40;;;10.20;;
15261;SDS011;7733;51.554;13.590;2023-03-19T00:41:35;9.67;;;8.77;;
15261;SDS011;7733;51.554;13.590;2023-03-19T00:44:01;11.00;;;10.00;;
15261;SDS011;7733;51.554;13.590;2023-03-19T00:46:28;10.67;;;9.67;;
15261;SDS011;7733;51.554;13.590;2023-03-19T00:48:54;10.20;;;9.30;;
15261;SDS011;7733;51.554;13.590;2023-03-19T00:51:21;10.87;;;9.77;;
15261;SDS011;7733;51.554;13.590;2023-03-19T00:53:48;10.53;;;9.50;;
15261;SDS011;7733;51.554;13.590;2023-03-19T00:56:15;10.00;;;9.00;;
15261;SDS011;7733;51.554;13.590;2023-03-19T00:58:42;11.13;;;9.60;;
15261;SDS011;7733;51.554;13.590;2023-03-19T01:01:09;10.23;;;9.17;;
15261;SDS011;7733;51.554;13.590;2023-03-19T01:03:38;12.00;;;9.80;;
15261;SDS011;7733;51.554;13.590;2023-03-19T01:06:04;11.67;;;9.57;;
15261;SDS011;7733;51.554;13.590;2023-03-19T01:08:31;10.90;;;9.67;;
15261;SDS011;7733;51.554;13.590;2023-03-19T01:11:07;11.13;;;9.87;;
15261;SDS011;7733;51.554;13.590;2023-03-19T01:13:38;10.10;;;9.20;;
15261;SDS011;7733;51.554;13.590;2023-03-19T01:16:06;10.60;;;9.20;;
15261;SDS011;7733;51.554;13.590;2023-03-19T01:18:32;9.83;;;8.90;;
15261;SDS011;7733;51.554;13.590;2023-03-19T01:20:58;10.60;;;9.70;;
15261;SDS011;7733;51.554;13.590;2023-03-19T01:23:25;11.33;;;10.20;;
15261;SDS011;7733;51.554;13.590;2023-03-19T01:25:51;11.37;;;10.17;;
15261;SDS011;7733;51.554;13.590;2023-03-19T01:28:17;11.40;;;10.30;;
15261;SDS011;7733;51.554;13.590;2023-03-19T01:30:44;12.40;;;9.60;;
15261;SDS011;7733;51.554;13.590;2023-03-19T01:33:10;11.43;;;10.00;;
15261;SDS011;7733;51.554;13.590;2023-03-19T01:35:35;11.20;;;10.10;;
15261;SDS011;7733;51.554;13.590;2023-03-19T01:38:01;11.47;;;10.27;;
15261;SDS011;7733;51.554;13.590;2023-03-19T01:40:27;10.60;;;9.60;;
15261;SDS011;7733;51.554;13.590;2023-03-19T01:45:45;10.77;;;9.70;;
15261;SDS011;7733;51.554;13.590;2023-03-19T01:48:36;11.40;;;10.30;;
15261;SDS011;7733;51.554;13.590;2023-03-19T01:51:10;11.73;;;10.20;;
15261;SDS011;7733;51.554;13.590;2023-03-19T01:53:40;13.03;;;10.23;;
15261;SDS011;7733;51.554;13.590;2023-03-19T01:56:14;11.67;;;10.33;;
15261;SDS011;7733;51.554;13.590;2023-03-19T01:58:48;14.23;;;10.30;;
15261;SDS011;7733;51.554;13.590;2023-03-19T02:01:20;12.17;;;10.73;;
15261;SDS011;7733;51.554;13.590;2023-03-19T02:03:47;11.67;;;10.47;;
15261;SDS011;7733;51.554;13.590;2023-03-19T02:06:16;12.20;;;10.90;;
15261;SDS011;7733;51.554;13.590;2023-03-19T02:08:48;11.33;;;10.23;;
15261;SDS011;7733;51.554;13.590;2023-03-19T02:11:15;11.33;;;10.23;;
15261;SDS011;7733;51.554;13.590;2023-03-19T02:13:42;11.17;;;10.03;;
15261;SDS011;7733;51.554;13.590;2023-03-19T02:16:09;10.73;;;9.63;;
15261;SDS011;7733;51.554;13.590;2023-03-19T02:18:36;10.63;;;9.53;;
15261;SDS011;7733;51.554;13.590;2023-03-19T02:21:12;11.33;;;10.23;;
15261;SDS011;7733;51.554;13.590;2023-03-19T02:23:46;11.37;;;10.03;;
15261;SDS011;7733;51.554;13.590;2023-03-19T02:26:41;10.80;;;9.70;;
15261;SDS011;7733;51.554;13.590;2023-03-19T02:29:09;10.70;;;9.70;;
15261;SDS011;7733;51.554;13.590;2023-03-19T02:31:36;10.80;;;9.80;;
15261;SDS011;7733;51.554;13.590;2023-03-19T02:34:03;11.60;;;10.50;;
15261;SDS011;7733;51.554;13.590;2023-03-19T02:37:12;14.83;;;12.20;;
15261;SDS011;7733;51.554;13.590;2023-03-19T02:40:00;18.00;;;14.10;;
15261;SDS011;7733;51.554;13.590;2023-03-19T02:42:32;17.93;;;14.53;;
15261;SDS011;7733;51.554;13.590;2023-03-19T02:44:59;18.70;;;14.70;;
15261;SDS011;7733;51.554;13.590;2023-03-19T02:47:25;13.73;;;12.33;;
15261;SDS011;7733;51.554;13.590;2023-03-19T02:49:51;15.20;;;12.47;;
15261;SDS011;7733;51.554;13.590;2023-03-19T02:52:18;14.30;;;12.80;;
15261;SDS011;7733;51.554;13.590;2023-03-19T02:54:44;14.77;;;12.27;;
15261;SDS011;7733;51.554;13.590;2023-03-19T02:57:10;13.33;;;11.83;;
15261;SDS011;7733;51.554;13.590;2023-03-19T02:59:37;13.70;;;12.23;;
15261;SDS011;7733;51.554;13.590;2023-03-19T03:02:03;14.67;;;13.03;;
15261;SDS011;7733;51.554;13.590;2023-03-19T03:04:30;16.40;;;13.37;;
15261;SDS011;7733;51.554;13.590;2023-03-19T03:06:58;15.07;;;13.47;;
15261;SDS011;7733;51.554;13.590;2023-03-19T03:09:25;14.17;;;12.00;;
15261;SDS011;7733;51.554;13.590;2023-03-19T03:11:51;12.70;;;11.37;;
15261;SDS011;7733;51.554;13.590;2023-03-19T03:14:17;11.30;;;10.20;;
15261;SDS011;7733;51.554;13.590;2023-03-19T03:16:43;10.63;;;9.30;;
15261;SDS011;7733;51.554;13.590;2023-03-19T03:19:09;10.80;;;9.50;;
15261;SDS011;7733;51.554;13.590;2023-03-19T03:21:35;9.57;;;8.77;;
15261;SDS011;7733;51.554;13.590;2023-03-19T03:24:01;10.40;;;9.37;;
15261;SDS011;7733;51.554;13.590;2023-03-19T03:26:28;10.03;;;9.03;;
15261;SDS011;7733;51.554;13.590;2023-03-19T03:28:54;10.10;;;9.20;;
15261;SDS011;7733;51.554;13.590;2023-03-19T03:31:20;10.17;;;8.90;;
15261;SDS011;7733;51.554;13.590;2023-03-19T03:33:46;10.53;;;9.43;;
15261;SDS011;7733;51.554;13.590;2023-03-19T03:36:12;12.07;;;9.73;;
15261;SDS011;7733;51.554;13.590;2023-03-19T03:38:38;10.10;;;9.10;;
15261;SDS011;7733;51.554;13.590;2023-03-19T03:41:04;11.30;;;10.20;;
15261;SDS011;7733;51.554;13.590;2023-03-19T03:43:30;15.67;;;14.00;;
15261;SDS011;7733;51.554;13.590;2023-03-19T03:45:56;19.37;;;16.13;;
15261;SDS011;7733;51.554;13.590;2023-03-19T03:48:22;16.80;;;14.87;;
15261;SDS011;7733;51.554;13.590;2023-03-19T03:50:47;13.43;;;12.03;;
15261;SDS011;7733;51.554;13.590;2023-03-19T03:53:13;15.60;;;13.20;;
15261;SDS011;7733;51.554;13.590;2023-03-19T03:55:39;13.20;;;11.07;;
15261;SDS011;7733;51.554;13.590;2023-03-19T03:58:06;12.97;;;11.67;;
15261;SDS011;7733;51.554;13.590;2023-03-19T04:00:32;12.53;;;11.43;;
15261;SDS011;7733;51.554;13.590;2023-03-19T04:02:58;12.53;;;10.43;;
15261;SDS011;7733;51.554;13.590;2023-03-19T04:05:23;11.20;;;10.10;;
15261;SDS011;7733;51.554;13.590;2023-03-19T04:07:49;12.07;;;10.83;;
15261;SDS011;7733;51.554;13.590;2023-03-19T04:10:15;13.33;;;10.80;;
15261;SDS011;7733;51.554;13.590;2023-03-19T04:12:41;12.07;;;10.87;;
15261;SDS011;7733;51.554;13.590;2023-03-19T04:15:08;12.00;;;10.90;;
15261;SDS011;7733;51.554;13.590;2023-03-19T04:17:35;12.20;;;11.00;;
15261;SDS011;7733;51.554;13.590;2023-03-19T04:20:04;12.57;;;11.40;;
15261;SDS011;7733;51.554;13.590;2023-03-19T04:22:31;11.87;;;10.77;;
15261;SDS011;7733;51.554;13.590;2023-03-19T04:24:57;12.00;;;10.80;;
15261;SDS011;7733;51.554;13.590;2023-03-19T04:27:23;12.37;;;11.03;;
15261;SDS011;7733;51.554;13.590;2023-03-19T04:29:49;11.50;;;9.73;;
15261;SDS011;7733;51.554;13.590;2023-03-19T04:32:15;11.03;;;9.73;;
15261;SDS011;7733;51.554;13.590;2023-03-19T04:34:41;11.15;;;10.05;;
15261;SDS011;7733;51.554;13.590;2023-03-19T04:37:07;11.27;;;10.07;;
15261;SDS011;7733;51.554;13.590;2023-03-19T04:39:37;11.80;;;10.43;;
15261;SDS011;7733;51.554;13.590;2023-03-19T04:42:02;11.83;;;10.60;;
15261;SDS011;7733;51.554;13.590;2023-03-19T04:44:28;13.63;;;11.20;;
15261;SDS011;7733;51.554;13.590;2023-03-19T04:46:55;12.27;;;10.43;;
15261;SDS011;7733;51.554;13.590;2023-03-19T04:49:21;11.97;;;10.50;;
15261;SDS011;7733;51.554;13.590;2023-03-19T04:51:48;10.80;;;9.70;;
15261;SDS011;7733;51.554;13.590;2023-03-19T04:54:15;14.77;;;11.93;;
15261;SDS011;7733;51.554;13.590;2023-03-19T04:56:41;12.70;;;11.40;;
15261;SDS011;7733;51.554;13.590;2023-03-19T04:59:06;11.93;;;10.53;;
15261;SDS011;7733;51.554;13.590;2023-03-19T05:01:34;11.67;;;10.57;;
15261;SDS011;7733;51.554;13.590;2023-03-19T05:04:00;12.00;;;10.80;;
15261;SDS011;7733;51.554;13.590;2023-03-19T05:06:26;14.63;;;11.30;;
15261;SDS011;7733;51.554;13.590;2023-03-19T05:08:53;12.07;;;10.77;;
15261;SDS011;7733;51.554;13.590;2023-03-19T05:11:18;12.20;;;10.63;;
15261;SDS011;7733;51.554;13.590;2023-03-19T05:13:45;11.83;;;10.30;;
15261;SDS011;7733;51.554;13.590;2023-03-19T05:16:10;11.43;;;10.30;;
15261;SDS011;7733;51.554;13.590;2023-03-19T05:18:37;11.60;;;10.40;;
15261;SDS011;7733;51.554;13.590;2023-03-19T05:21:03;12.00;;;10.67;;
15261;SDS011;7733;51.554;13.590;2023-03-19T05:23:29;13.37;;;11.97;;
15261;SDS011;7733;51.554;13.590;2023-03-19T05:25:56;15.07;;;13.67;;
15261;SDS011;7733;51.554;13.590;2023-03-19T05:28:24;14.53;;;12.80;;
15261;SDS011;7733;51.554;13.590;2023-03-19T05:30:51;14.57;;;11.57;;
15261;SDS011;7733;51.554;13.590;2023-03-19T05:33:17;13.33;;;11.97;;
15261;SDS011;7733;51.554;13.590;2023-03-19T05:35:42;12.57;;;10.80;;
15261;SDS011;7733;51.554;13.590;2023-03-19T05:38:08;12.37;;;10.37;;
15261;SDS011;7733;51.554;13.590;2023-03-19T05:40:35;11.13;;;10.03;;
15261;SDS011;7733;51.554;13.590;2023-03-19T05:43:01;10.40;;;9.40;;
15261;SDS011;7733;51.554;13.590;2023-03-19T05:45:27;10.93;;;9.83;;
15261;SDS011;7733;51.554;13.590;2023-03-19T05:47:53;10.43;;;9.43;;
15261;SDS011;7733;51.554;13.590;2023-03-19T05:50:19;10.83;;;9.73;;
15261;SDS011;7733;51.554;13.590;2023-03-19T05:52:45;10.83;;;9.73;;
15261;SDS011;7733;51.554;13.590;2023-03-19T05:55:11;11.00;;;10.00;;
15261;SDS011;7733;51.554;13.590;2023-03-19T05:57:37;10.97;;;9.83;;
15261;SDS011;7733;51.554;13.590;2023-03-19T06:00:04;12.30;;;9.93;;
15261;SDS011;7733;51.554;13.590;2023-03-19T06:02:31;11.77;;;9.57;;
15261;SDS011;7733;51.554;13.590;2023-03-19T06:04:59;13.27;;;10.30;;
15261;SDS011;7733;51.554;13.590;2023-03-19T06:07:25;11.23;;;10.07;;
15261;SDS011;7733;51.554;13.590;2023-03-19T06:09:51;10.77;;;9.87;;
15261;SDS011;7733;51.554;13.590;2023-03-19T06:12:16;12.30;;;10.17;;
15261;SDS011;7733;51.554;13.590;2023-03-19T06:14:42;10.53;;;9.43;;
15261;SDS011;7733;51.554;13.590;2023-03-19T06:17:08;10.73;;;9.53;;
15261;SDS011;7733;51.554;13.590;2023-03-19T06:19:34;9.90;;;9.00;;
15261;SDS011;7733;51.554;13.590;2023-03-19T06:22:00;11.10;;;9.90;;
15261;SDS011;7733;51.554;13.590;2023-03-19T06:24:26;12.37;;;9.80;;
15261;SDS011;7733;51.554;13.590;2023-03-19T06:26:54;10.47;;;9.37;;
15261;SDS011;7733;51.554;13.590;2023-03-19T06:29:20;10.60;;;9.53;;
15261;SDS011;7733;51.554;13.590;2023-03-19T06:31:46;10.37;;;9.37;;
15261;SDS011;7733;51.554;13.590;2023-03-19T06:34:11;11.40;;;10.30;;
15261;SDS011;7733;51.554;13.590;2023-03-19T06:36:37;10.10;;;9.10;;
15261;SDS011;7733;51.554;13.590;2023-03-19T06:39:03;10.27;;;9.27;;
15261;SDS011;7733;51.554;13.590;2023-03-19T06:41:29;10.20;;;9.10;;
15261;SDS011;7733;51.554;13.590;2023-03-19T06:43:55;10.53;;;9.43;;
15261;SDS011;7733;51.554;13.590;2023-03-19T06:46:21;10.80;;;9.80;;
15261;SDS011;7733;51.554;13.590;2023-03-19T06:48:48;9.97;;;9.00;;
15261;SDS011;7733;51.554;13.590;2023-03-19T06:51:13;11.23;;;9.80;;
15261;SDS011;7733;51.554;13.590;2023-03-19T06:53:39;11.40;;;9.97;;
15261;SDS011;7733;51.554;13.590;2023-03-19T06:56:05;10.47;;;9.37;;
15261;SDS011;7733;51.554;13.590;2023-03-19T06:58:31;13.57;;;9.60;;
15261;SDS011;7733;51.554;13.590;2023-03-19T07:00:56;11.87;;;9.03;;
15261;SDS011;7733;51.554;13.590;2023-03-19T07:03:22;9.57;;;8.57;;
15261;SDS011;7733;51.554;13.590;2023-03-19T07:05:51;12.03;;;9.40;;
15261;SDS011;7733;51.554;13.590;2023-03-19T07:08:17;10.00;;;9.00;;
15261;SDS011;7733;51.554;13.590;2023-03-19T07:10:44;9.63;;;8.73;;
15261;SDS011;7733;51.554;13.590;2023-03-19T07:13:09;11.23;;;10.07;;
15261;SDS011;7733;51.554;13.590;2023-03-19T07:15:35;11.43;;;8.90;;
15261;SDS011;7733;51.554;13.590;2023-03-19T07:18:01;10.17;;;9.17;;
15261;SDS011;7733;51.554;13.590;2023-03-19T07:20:27;10.43;;;9.37;;
15261;SDS011;7733;51.554;13.590;2023-03-19T07:22:53;9.93;;;8.80;;
15261;SDS011;7733;51.554;13.590;2023-03-19T07:25:19;9.87;;;8.90;;
15261;SDS011;7733;51.554;13.590;2023-03-19T07:27:45;10.50;;;9.10;;
15261;SDS011;7733;51.554;13.590;2023-03-19T07:30:11;9.80;;;8.80;;
15261;SDS011;7733;51.554;13.590;2023-03-19T07:32:38;11.57;;;9.33;;
15261;SDS011;7733;51.554;13.590;2023-03-19T07:35:05;11.03;;;9.57;;
15261;SDS011;7733;51.554;13.590;2023-03-19T07:37:32;13.10;;;9.77;;
15261;SDS011;7733;51.554;13.590;2023-03-19T07:39:58;10.27;;;9.27;;
15261;SDS011;7733;51.554;13.590;2023-03-19T07:42:23;10.27;;;9.27;;
15261;SDS011;7733;51.554;13.590;2023-03-19T07:44:49;10.70;;;9.70;;
15261;SDS011;7733;51.554;13.590;2023-03-19T07:47:15;10.37;;;9.37;;
15261;SDS011;7733;51.554;13.590;2023-03-19T07:49:41;11.03;;;10.03;;
15261;SDS011;7733;51.554;13.590;2023-03-19T07:52:07;10.63;;;9.63;;
15261;SDS011;7733;51.554;13.590;2023-03-19T07:54:33;10.33;;;9.33;;
15261;SDS011;7733;51.554;13.590;2023-03-19T07:56:59;10.60;;;9.47;;
15261;SDS011;7733;51.554;13.590;2023-03-19T07:59:25;10.60;;;9.60;;
15261;SDS011;7733;51.554;13.590;2023-03-19T08:01:51;10.00;;;9.00;;
15261;SDS011;7733;51.554;13.590;2023-03-19T08:04:17;10.53;;;9.47;;
15261;SDS011;7733;51.554;13.590;2023-03-19T08:06:42;12.37;;;9.30;;
15261;SDS011;7733;51.554;13.590;2023-03-19T08:09:08;10.87;;;9.53;;
15261;SDS011;7733;51.554;13.590;2023-03-19T08:11:35;10.47;;;9.37;;
15261;SDS011;7733;51.554;13.590;2023-03-19T08:14:01;10.77;;;9.70;;
15261;SDS011;7733;51.554;13.590;2023-03-19T08:16:28;11.07;;;9.40;;
15261;SDS011;7733;51.554;13.590;2023-03-19T08:18:54;10.90;;;9.77;;
15261;SDS011;7733;51.554;13.590;2023-03-19T08:21:19;10.50;;;9.50;;
15261;SDS011;7733;51.554;13.590;2023-03-19T08:23:45;9.47;;;8.57;;
15261;SDS011;7733;51.554;13.590;2023-03-19T08:26:11;10.43;;;9.33;;
15261;SDS011;7733;51.554;13.590;2023-03-19T08:28:37;10.40;;;9.43;;
15261;SDS011;7733;51.554;13.590;2023-03-19T08:31:09;11.23;;;9.37;;
15261;SDS011;7733;51.554;13.590;2023-03-19T08:33:38;10.23;;;9.17;;
15261;SDS011;7733;51.554;13.590;2023-03-19T08:36:06;9.90;;;8.90;;
15261;SDS011;7733;51.554;13.590;2023-03-19T08:38:35;11.07;;;9.40;;
15261;SDS011;7733;51.554;13.590;2023-03-19T08:41:01;9.70;;;8.80;;
15261;SDS011;7733;51.554;13.590;2023-03-19T08:43:32;10.13;;;9.13;;
15261;SDS011;7733;51.554;13.590;2023-03-19T08:45:59;11.87;;;9.17;;
15261;SDS011;7733;51.554;13.590;2023-03-19T08:48:25;9.63;;;8.73;;
15261;SDS011;7733;51.554;13.590;2023-03-19T08:50:52;10.20;;;9.17;;
15261;SDS011;7733;51.554;13.590;2023-03-19T08:53:20;29.97;;;24.83;;
15261;SDS011;7733;51.554;13.590;2023-03-19T08:55:58;11.10;;;10.00;;
15261;SDS011;7733;51.554;13.590;2023-03-19T08:58:27;10.97;;;9.53;;
15261;SDS011;7733;51.554;13.590;2023-03-19T09:00:53;11.00;;;9.33;;
15261;SDS011;7733;51.554;13.590;2023-03-19T09:03:27;10.03;;;9.03;;
15261;SDS011;7733;51.554;13.590;2023-03-19T09:05:52;10.07;;;9.03;;
15261;SDS011;7733;51.554;13.590;2023-03-19T09:08:22;9.47;;;8.57;;
15261;SDS011;7733;51.554;13.590;2023-03-19T09:10:48;9.50;;;8.57;;
15261;SDS011;7733;51.554;13.590;2023-03-19T09:13:13;10.60;;;9.50;;
15261;SDS011;7733;51.554;13.590;2023-03-19T09:15:39;10.17;;;9.17;;
15261;SDS011;7733;51.554;13.590;2023-03-19T09:18:05;11.73;;;9.20;;
15261;SDS011;7733;51.554;13.590;2023-03-19T09:20:31;9.73;;;8.87;;
15261;SDS011;7733;51.554;13.590;2023-03-19T09:22:56;9.73;;;8.73;;
15261;SDS011;7733;51.554;13.590;2023-03-19T09:25:22;9.97;;;8.97;;
15261;SDS011;7733;51.554;13.590;2023-03-19T09:27:48;10.23;;;9.07;;
15261;SDS011;7733;51.554;13.590;2023-03-19T09:30:14;10.13;;;9.13;;
15261;SDS011;7733;51.554;13.590;2023-03-19T09:32:40;11.03;;;9.37;;
15261;SDS011;7733;51.554;13.590;2023-03-19T09:35:06;10.03;;;9.13;;
15261;SDS011;7733;51.554;13.590;2023-03-19T09:37:32;12.73;;;10.77;;
15261;SDS011;7733;51.554;13.590;2023-03-19T09:39:58;10.60;;;9.60;;
15261;SDS011;7733;51.554;13.590;2023-03-19T09:42:30;9.80;;;8.80;;
15261;SDS011;7733;51.554;13.590;2023-03-19T09:45:22;9.60;;;8.80;;
15261;SDS011;7733;51.554;13.590;2023-03-19T09:47:50;9.37;;;8.53;;
15261;SDS011;7733;51.554;13.590;2023-03-19T09:50:23;9.30;;;8.23;;
15261;SDS011;7733;51.554;13.590;2023-03-19T09:52:55;9.83;;;8.93;;
15261;SDS011;7733;51.554;13.590;2023-03-19T09:58:21;9.83;;;8.83;;
15261;SDS011;7733;51.554;13.590;2023-03-19T10:00:54;12.13;;;10.93;;
15261;SDS011;7733;51.554;13.590;2023-03-19T10:06:01;11.17;;;10.07;;
15261;SDS011;7733;51.554;13.590;2023-03-19T10:12:58;9.60;;;8.70;;
15261;SDS011;7733;51.554;13.590;2023-03-19T10:15:30;9.73;;;8.80;;
15261;SDS011;7733;51.554;13.590;2023-03-19T10:20:45;9.33;;;8.53;;
15261;SDS011;7733;51.554;13.590;2023-03-19T10:26:04;9.30;;;8.40;;
15261;SDS011;7733;51.554;13.590;2023-03-19T10:28:35;8.77;;;7.90;;
15261;SDS011;7733;51.554;13.590;2023-03-19T10:36:45;8.60;;;7.90;;
15261;SDS011;7733;51.554;13.590;2023-03-19T10:39:11;8.60;;;7.90;;
15261;SDS011;7733;51.554;13.590;2023-03-19T10:44:28;10.17;;;8.07;;
15261;SDS011;7733;51.554;13.590;2023-03-19T10:47:24;11.33;;;8.10;;
15261;SDS011;7733;51.554;13.590;2023-03-19T10:49:50;9.03;;;7.80;;
15261;SDS011;7733;51.554;13.590;2023-03-19T10:54:54;9.30;;;8.43;;
15261;SDS011;7733;51.554;13.590;2023-03-19T10:57:28;8.73;;;7.90;;
15261;SDS011;7733;51.554;13.590;2023-03-19T11:00:01;9.43;;;8.53;;
15261;SDS011;7733;51.554;13.590;2023-03-19T11:02:31;8.70;;;7.90;;
15261;SDS011;7733;51.554;13.590;2023-03-19T11:05:07;11.27;;;8.73;;
15261;SDS011;7733;51.554;13.590;2023-03-19T11:07:50;9.17;;;8.20;;
15261;SDS011;7733;51.554;13.590;2023-03-19T11:10:24;8.60;;;7.80;;
15261;SDS011;7733;51.554;13.590;2023-03-19T11:12:54;9.00;;;8.10;;
15261;SDS011;7733;51.554;13.590;2023-03-19T11:15:34;9.27;;;8.40;;
15261;SDS011;7733;51.554;13.590;2023-03-19T11:18:19;8.73;;;7.83;;
15261;SDS011;7733;51.554;13.590;2023-03-19T11:21:13;8.13;;;7.37;;
15261;SDS011;7733;51.554;13.590;2023-03-19T11:24:00;8.87;;;8.03;;
15261;SDS011;7733;51.554;13.590;2023-03-19T11:26:28;7.97;;;7.20;;
15261;SDS011;7733;51.554;13.590;2023-03-19T11:29:03;8.43;;;7.53;;
15261;SDS011;7733;51.554;13.590;2023-03-19T11:31:33;8.40;;;7.67;;
15261;SDS011;7733;51.554;13.590;2023-03-19T11:37:00;8.60;;;7.80;;
15261;SDS011;7733;51.554;13.590;2023-03-19T11:40:08;8.07;;;7.27;;
15261;SDS011;7733;51.554;13.590;2023-03-19T11:43:16;8.10;;;7.40;;
15261;SDS011;7733;51.554;13.590;2023-03-19T11:52:09;7.70;;;6.90;;
15261;SDS011;7733;51.554;13.590;2023-03-19T11:58:21;8.37;;;7.57;;
15261;SDS011;7733;51.554;13.590;2023-03-19T12:18:23;8.10;;;7.30;;
15261;SDS011;7733;51.554;13.590;2023-03-19T12:21:21;7.33;;;6.73;;
15261;SDS011;7733;51.554;13.590;2023-03-19T12:24:20;7.97;;;7.23;;
15261;SDS011;7733;51.554;13.590;2023-03-19T12:36:14;10.20;;;8.70;;
15261;SDS011;7733;51.554;13.590;2023-03-19T12:39:01;8.47;;;7.77;;
15261;SDS011;7733;51.554;13.590;2023-03-19T12:41:38;8.97;;;8.17;;
15261;SDS011;7733;51.554;13.590;2023-03-19T12:49:33;8.80;;;7.90;;
15261;SDS011;7733;51.554;13.590;2023-03-19T13:03:41;8.93;;;8.03;;
15261;SDS011;7733;51.554;13.590;2023-03-19T13:06:41;8.43;;;7.53;;
15261;SDS011;7733;51.554;13.590;2023-03-19T13:09:26;8.00;;;7.23;;
15261;SDS011;7733;51.554;13.590;2023-03-19T13:23:36;12.60;;;10.73;;
15261;SDS011;7733;51.554;13.590;2023-03-19T13:26:08;8.73;;;7.83;;
15261;SDS011;7733;51.554;13.590;2023-03-19T13:28:38;8.87;;;7.60;;
15261;SDS011;7733;51.554;13.590;2023-03-19T13:31:48;8.33;;;7.50;;
15261;SDS011;7733;51.554;13.590;2023-03-19T13:34:17;8.23;;;7.43;;
15261;SDS011;7733;51.554;13.590;2023-03-19T13:37:00;8.70;;;7.87;;
15261;SDS011;7733;51.554;13.590;2023-03-19T13:39:37;8.03;;;7.33;;
15261;SDS011;7733;51.554;13.590;2023-03-19T13:55:59;8.73;;;7.87;;
15261;SDS011;7733;51.554;13.590;2023-03-19T13:58:43;8.60;;;7.83;;
15261;SDS011;7733;51.554;13.590;2023-03-19T14:03:54;7.40;;;6.43;;
15261;SDS011;7733;51.554;13.590;2023-03-19T14:12:09;7.20;;;6.50;;
15261;SDS011;7733;51.554;13.590;2023-03-19T14:17:14;7.30;;;6.70;;
15261;SDS011;7733;51.554;13.590;2023-03-19T14:19:45;7.30;;;6.67;;
15261;SDS011;7733;51.554;13.590;2023-03-19T14:25:55;8.33;;;7.63;;
15261;SDS011;7733;51.554;13.590;2023-03-19T14:28:59;8.23;;;7.27;;
15261;SDS011;7733;51.554;13.590;2023-03-19T14:31:30;7.87;;;7.13;;
15261;SDS011;7733;51.554;13.590;2023-03-19T14:36:43;9.30;;;8.40;;
15261;SDS011;7733;51.554;13.590;2023-03-19T14:39:22;8.03;;;7.30;;
15261;SDS011;7733;51.554;13.590;2023-03-19T14:42:07;8.33;;;7.63;;
15261;SDS011;7733;51.554;13.590;2023-03-19T14:53:36;8.10;;;7.30;;
15261;SDS011;7733;51.554;13.590;2023-03-19T14:56:35;8.07;;;7.37;;
15261;SDS011;7733;51.554;13.590;2023-03-19T14:59:00;8.87;;;8.00;;
15261;SDS011;7733;51.554;13.590;2023-03-19T15:01:32;7.87;;;7.17;;
15261;SDS011;7733;51.554;13.590;2023-03-19T15:04:06;9.43;;;7.40;;
15261;SDS011;7733;51.554;13.590;2023-03-19T15:06:37;8.67;;;7.80;;
15261;SDS011;7733;51.554;13.590;2023-03-19T15:09:13;7.60;;;6.87;;
15261;SDS011;7733;51.554;13.590;2023-03-19T15:12:06;7.70;;;7.00;;
15261;SDS011;7733;51.554;13.590;2023-03-19T15:17:34;8.10;;;7.33;;
15261;SDS011;7733;51.554;13.590;2023-03-19T15:20:03;8.13;;;7.43;;
15261;SDS011;7733;51.554;13.590;2023-03-19T15:22:54;8.43;;;7.53;;
15261;SDS011;7733;51.554;13.590;2023-03-19T15:25:25;7.67;;;6.93;;
15261;SDS011;7733;51.554;13.590;2023-03-19T15:30:59;8.17;;;7.47;;
15261;SDS011;7733;51.554;13.590;2023-03-19T15:33:32;7.70;;;7.10;;
15261;SDS011;7733;51.554;13.590;2023-03-19T15:41:23;8.33;;;7.63;;
15261;SDS011;7733;51.554;13.590;2023-03-19T15:43:55;7.77;;;6.90;;
15261;SDS011;7733;51.554;13.590;2023-03-19T15:46:22;7.37;;;6.77;;
15261;SDS011;7733;51.554;13.590;2023-03-19T15:48:54;7.97;;;7.17;;
15261;SDS011;7733;51.554;13.590;2023-03-19T15:51:38;8.03;;;7.23;;
15261;SDS011;7733;51.554;13.590;2023-03-19T15:54:07;7.83;;;7.07;;
15261;SDS011;7733;51.554;13.590;2023-03-19T15:56:33;9.13;;;6.70;;
15261;SDS011;7733;51.554;13.590;2023-03-19T15:58:59;7.63;;;6.80;;
15261;SDS011;7733;51.554;13.590;2023-03-19T16:01:27;6.93;;;6.33;;
15261;SDS011;7733;51.554;13.590;2023-03-19T16:04:07;6.37;;;5.60;;
15261;SDS011;7733;51.554;13.590;2023-03-19T16:06:47;5.97;;;4.70;;
15261;SDS011;7733;51.554;13.590;2023-03-19T16:11:48;5.10;;;4.47;;
15261;SDS011;7733;51.554;13.590;2023-03-19T16:16:48;7.93;;;5.93;;
15261;SDS011;7733;51.554;13.590;2023-03-19T16:19:34;6.03;;;5.53;;
15261;SDS011;7733;51.554;13.590;2023-03-19T16:22:09;4.37;;;4.07;;
15261;SDS011;7733;51.554;13.590;2023-03-19T16:24:46;4.03;;;3.73;;
15261;SDS011;7733;51.554;13.590;2023-03-19T16:27:15;4.60;;;4.20;;
15261;SDS011;7733;51.554;13.590;2023-03-19T16:29:45;4.40;;;4.00;;
15261;SDS011;7733;51.554;13.590;2023-03-19T16:32:24;4.10;;;3.80;;
15261;SDS011;7733;51.554;13.590;2023-03-19T16:34:53;4.53;;;3.80;;
15261;SDS011;7733;51.554;13.590;2023-03-19T16:42:42;4.43;;;3.40;;
15261;SDS011;7733;51.554;13.590;2023-03-19T16:47:42;3.63;;;3.37;;
15261;SDS011;7733;51.554;13.590;2023-03-19T16:50:13;3.57;;;3.27;;
15261;SDS011;7733;51.554;13.590;2023-03-19T16:52:42;3.40;;;3.20;;
15261;SDS011;7733;51.554;13.590;2023-03-19T16:55:20;3.37;;;3.13;;
15261;SDS011;7733;51.554;13.590;2023-03-19T16:57:56;3.10;;;2.90;;
15261;SDS011;7733;51.554;13.590;2023-03-19T17:00:31;2.77;;;2.47;;
15261;SDS011;7733;51.554;13.590;2023-03-19T17:02:58;2.70;;;2.50;;
15261;SDS011;7733;51.554;13.590;2023-03-19T17:05:25;2.73;;;2.63;;
15261;SDS011;7733;51.554;13.590;2023-03-19T17:07:53;2.60;;;2.40;;
15261;SDS011;7733;51.554;13.590;2023-03-19T17:10:20;2.83;;;2.63;;
15261;SDS011;7733;51.554;13.590;2023-03-19T17:12:49;2.80;;;2.63;;
15261;SDS011;7733;51.554;13.590;2023-03-19T17:15:22;3.30;;;3.10;;
15261;SDS011;7733;51.554;13.590;2023-03-19T17:17:53;3.90;;;3.50;;
15261;SDS011;7733;51.554;13.590;2023-03-19T17:20:24;2.60;;;2.50;;
15261;SDS011;7733;51.554;13.590;2023-03-19T17:23:09;3.23;;;2.93;;
15261;SDS011;7733;51.554;13.590;2023-03-19T17:25:36;2.80;;;2.50;;
15261;SDS011;7733;51.554;13.590;2023-03-19T17:28:02;4.37;;;3.20;;
15261;SDS011;7733;51.554;13.590;2023-03-19T17:30:28;4.20;;;3.13;;
15261;SDS011;7733;51.554;13.590;2023-03-19T17:32:54;2.90;;;2.70;;